Terminal Aerodrome Forecast
Issued by NWS Cheyenne, WY

Home | Current Version | Previous Version | Text Only | Print | Product List | Glossary On
Versions: 1 2 3 4 5 6 7 8 9 10 11 12 13 14 15 16 17 18 19 20 21 22 23 24 25 26 27 28
000
FTUS45 KCYS 051124
TAFCYS
TAF
KCYS 051124Z 0512/0612 27008KT P6SM SCT100
     FM051900 28012G23KT P6SM VCTS BKN060CB
     FM060000 33013KT P6SM -RA VCTS BKN030 OVC050CB
     FM060600 36010KT 4SM RA VCTS BKN010 OVC020CB=

USA.gov is the U.S. government's official web portal to all federal, state and local government web resources and services.